Time;durP1;ratioP1;P1;durP2;ratioP2;P2;SDS_P1;SDS_P2;PMS_P1;PMS_P2;Temp;Humidity;BMP_temperature;BMP_pressure;BME280_temperature;BME280_humidity;BME280_pressure;Samples;Min_cycle;Max_cycle;Signal;HPM_P1;HPM_P2
2022/11/22 00:01:08;;;;;;;28.30;17.53;;;0.20;99.90;;;;;;4844156;29;20480;-53
2022/11/22 00:03:36;;;;;;;30.20;18.80;;;0.20;99.90;;;;;;4844326;29;20829;-55
2022/11/22 00:06:04;;;;;;;26.60;17.10;;;0.20;99.90;;;;;;4844423;29;20538;-55
2022/11/22 00:08:35;;;;;;;30.50;19.70;;;0.20;99.90;;;;;;4844359;29;20484;-55
2022/11/22 00:11:03;;;;;;;33.43;20.03;;;0.30;99.90;;;;;;4844337;29;20837;-55
2022/11/22 00:13:30;;;;;;;31.67;18.93;;;0.30;99.90;;;;;;4844391;29;20547;-54
2022/11/22 00:15:59;;;;;;;31.80;18.47;;;0.30;99.90;;;;;;4844064;29;20488;-55
2022/11/22 00:18:28;;;;;;;31.80;18.83;;;0.30;99.90;;;;;;4844023;29;20887;-55
2022/11/22 00:20:56;;;;;;;29.73;18.13;;;0.30;99.90;;;;;;4843377;29;20480;-54
2022/11/22 00:23:24;;;;;;;30.23;19.33;;;0.20;99.90;;;;;;4844118;29;20884;-51
2022/11/22 00:25:53;;;;;;;28.73;17.87;;;0.20;99.90;;;;;;4843879;29;20480;-54
2022/11/22 00:28:21;;;;;;;32.30;19.03;;;0.20;99.90;;;;;;4843768;29;20479;-56
2022/11/22 00:30:49;;;;;;;30.37;18.10;;;0.30;99.90;;;;;;4843862;29;21007;-55
2022/11/22 00:33:17;;;;;;;30.63;18.40;;;0.30;99.90;;;;;;4843687;29;20972;-53
2022/11/22 00:35:45;;;;;;;25.90;15.97;;;0.30;99.90;;;;;;4843185;29;20481;-54
2022/11/22 00:38:13;;;;;;;33.63;18.33;;;0.40;99.90;;;;;;4843912;29;20484;-54
2022/11/22 00:40:41;;;;;;;30.80;18.47;;;0.40;99.90;;;;;;4843669;29;20476;-54
2022/11/22 00:43:11;;;;;;;32.43;19.13;;;0.40;99.90;;;;;;4843359;29;20496;-54
2022/11/22 00:45:41;;;;;;;27.20;17.00;;;0.40;99.90;;;;;;4843270;29;20480;-54
2022/11/22 00:48:09;;;;;;;28.80;17.63;;;0.30;99.90;;;;;;4825265;29;20538;-55
2022/11/22 00:50:37;;;;;;;29.87;18.17;;;0.30;99.90;;;;;;4843235;29;21057;-54
2022/11/22 00:53:05;;;;;;;29.27;18.50;;;0.30;99.90;;;;;;4843509;29;20481;-54
2022/11/22 00:55:33;;;;;;;27.30;17.27;;;0.30;99.90;;;;;;4843516;29;20480;-54
2022/11/22 00:58:01;;;;;;;30.00;17.23;;;0.30;99.90;;;;;;4843612;29;20487;-53
2022/11/22 01:00:31;;;;;;;29.47;16.80;;;0.30;99.90;;;;;;4843265;29;20473;-56
2022/11/22 01:03:01;;;;;;;27.23;16.17;;;0.30;99.90;;;;;;4843090;29;20491;-54
2022/11/22 01:05:29;;;;;;;29.83;17.77;;;0.40;99.90;;;;;;4843096;29;20476;-55
2022/11/22 01:07:57;;;;;;;28.90;17.40;;;0.40;99.90;;;;;;4843126;29;20881;-55
2022/11/22 01:10:25;;;;;;;31.37;17.97;;;0.40;99.90;;;;;;4843301;29;20476;-54
2022/11/22 01:12:53;;;;;;;28.80;17.00;;;0.40;99.90;;;;;;4843106;29;20468;-55
2022/11/22 01:15:21;;;;;;;30.20;17.27;;;0.40;99.90;;;;;;4843379;29;20482;-54
2022/11/22 01:17:51;;;;;;;29.13;17.70;;;0.40;99.90;;;;;;4842794;29;20484;-54
2022/11/22 01:20:19;;;;;;;27.87;17.10;;;0.40;99.90;;;;;;4843007;29;20506;-55
2022/11/22 01:22:47;;;;;;;29.53;17.27;;;0.50;99.90;;;;;;4842851;29;20480;-54
2022/11/22 01:25:15;;;;;;;26.93;15.77;;;0.50;99.90;;;;;;4842870;29;20464;-55
2022/11/22 01:27:43;;;;;;;29.23;17.47;;;0.50;99.90;;;;;;4842697;29;20875;-55
2022/11/22 01:30:12;;;;;;;28.53;16.80;;;0.50;99.90;;;;;;4843142;29;20481;-54
2022/11/22 01:32:40;;;;;;;31.77;18.43;;;0.50;99.90;;;;;;4842153;29;20928;-55
2022/11/22 01:35:10;;;;;;;27.43;16.13;;;0.50;99.90;;;;;;4843006;29;20487;-55
2022/11/22 01:37:38;;;;;;;31.87;19.40;;;0.60;99.90;;;;;;4842854;29;21024;-55
2022/11/22 01:40:07;;;;;;;28.47;17.20;;;0.60;99.90;;;;;;4842880;29;20496;-54
2022/11/22 01:42:49;;;;;;;30.67;18.73;;;0.50;99.90;;;;;;4842328;29;20499;-54
2022/11/22 01:45:37;;;;;;;28.20;18.00;;;0.60;99.90;;;;;;4841035;29;20480;-55
2022/11/22 01:48:15;;;;;;;30.50;18.87;;;0.60;99.90;;;;;;4842451;29;20480;-52
2022/11/22 01:50:48;;;;;;;30.77;19.23;;;0.50;99.90;;;;;;4842364;29;20487;-54
2022/11/22 01:53:21;;;;;;;30.57;17.93;;;0.50;99.90;;;;;;4842527;29;20878;-54
2022/11/22 01:55:51;;;;;;;31.10;18.47;;;0.60;99.90;;;;;;4842223;29;20468;-56
2022/11/22 01:58:21;;;;;;;33.43;19.47;;;0.70;99.90;;;;;;4842348;29;20476;-55
2022/11/22 02:00:52;;;;;;;29.80;17.73;;;0.70;99.90;;;;;;4842296;29;20894;-56
2022/11/22 02:03:21;;;;;;;30.03;18.37;;;0.80;99.90;;;;;;4842362;29;20799;-54
2022/11/22 02:05:52;;;;;;;34.63;18.93;;;0.80;99.90;;;;;;4842320;29;20487;-53
2022/11/22 02:08:25;;;;;;;33.70;19.80;;;0.70;99.90;;;;;;4842557;29;20869;-55
2022/11/22 02:10:55;;;;;;;32.73;19.40;;;0.70;99.90;;;;;;4842075;29;20483;-55
2022/11/22 02:13:24;;;;;;;35.87;19.77;;;0.70;99.90;;;;;;4842484;29;21005;-54
2022/11/22 02:15:52;;;;;;;31.40;19.93;;;0.70;99.90;;;;;;4842382;29;20480;-55
2022/11/22 02:18:20;;;;;;;33.33;19.50;;;0.70;99.90;;;;;;4842332;29;20878;-54
2022/11/22 02:20:48;;;;;;;34.43;19.30;;;0.70;99.90;;;;;;4841424;29;20491;-55
2022/11/22 02:23:23;;;;;;;34.43;19.30;;;0.70;99.90;;;;;;4842218;29;20476;-53
2022/11/22 02:25:55;;;;;;;32.53;19.50;;;0.70;99.90;;;;;;4842048;29;20476;-54
2022/11/22 02:28:24;;;;;;;32.10;18.80;;;0.70;99.90;;;;;;4841934;29;20486;-54
2022/11/22 02:30:52;;;;;;;32.87;19.37;;;0.70;99.90;;;;;;4842043;29;20492;-55
2022/11/22 02:33:20;;;;;;;36.37;19.60;;;0.70;99.90;;;;;;4842153;29;20511;-56
2022/11/22 02:35:48;;;;;;;37.00;20.30;;;0.70;99.90;;;;;;4841966;29;20480;-54
2022/11/22 02:38:19;;;;;;;34.63;20.20;;;0.70;99.90;;;;;;4841957;29;20472;-55
2022/11/22 02:40:53;;;;;;;33.40;19.53;;;0.70;99.90;;;;;;4841978;29;20548;-55
2022/11/22 02:43:26;;;;;;;37.03;19.87;;;0.80;99.90;;;;;;4841918;29;20533;-55
2022/11/22 02:45:54;;;;;;;33.80;19.60;;;0.80;99.90;;;;;;4841787;29;20483;-55
2022/11/22 02:48:22;;;;;;;31.80;19.50;;;0.80;99.90;;;;;;4840505;29;20468;-54
2022/11/22 02:50:50;;;;;;;29.33;18.63;;;0.80;99.90;;;;;;4839131;29;20480;-55
2022/11/22 02:53:18;;;;;;;34.57;20.87;;;0.80;99.90;;;;;;4841663;29;20852;-54
2022/11/22 02:55:46;;;;;;;33.73;20.40;;;0.70;99.90;;;;;;4841863;29;20479;-55
2022/11/22 02:58:14;;;;;;;32.77;19.23;;;0.80;99.90;;;;;;4844607;29;20468;-55
2022/11/22 03:00:43;;;;;;;30.67;19.43;;;0.80;99.90;;;;;;4845602;29;20479;-55
2022/11/22 03:03:11;;;;;;;33.67;19.20;;;0.90;99.90;;;;;;4845570;29;20830;-56
2022/11/22 03:05:39;;;;;;;35.40;20.50;;;0.80;99.90;;;;;;4845479;29;20474;-55
2022/11/22 03:08:07;;;;;;;33.07;19.70;;;0.90;99.90;;;;;;4845476;29;20489;-55
2022/11/22 03:10:35;;;;;;;35.63;20.43;;;0.90;99.90;;;;;;4845331;29;20473;-54
2022/11/22 03:13:03;;;;;;;34.27;21.03;;;0.80;99.90;;;;;;4845126;29;20853;-55
2022/11/22 03:15:31;;;;;;;33.33;20.50;;;0.80;99.90;;;;;;4844973;29;20484;-55
2022/11/22 03:18:02;;;;;;;34.40;20.57;;;0.80;99.90;;;;;;4845058;29;20476;-55
2022/11/22 03:20:31;;;;;;;33.43;19.93;;;0.80;99.90;;;;;;4841163;29;20988;-54
2022/11/22 03:23:00;;;;;;;34.03;20.43;;;0.80;99.90;;;;;;4845111;29;20480;-55
2022/11/22 03:25:28;;;;;;;33.17;21.07;;;0.80;99.90;;;;;;4845046;29;20473;-55
2022/11/22 03:27:58;;;;;;;30.93;19.57;;;0.80;99.90;;;;;;4844965;29;20468;-55
2022/11/22 03:30:26;;;;;;;32.70;20.37;;;0.90;99.90;;;;;;4845053;29;20472;-55
2022/11/22 03:32:54;;;;;;;34.83;21.37;;;0.90;99.90;;;;;;4844924;29;20499;-55
2022/11/22 03:35:23;;;;;;;33.93;20.50;;;0.90;99.90;;;;;;4844979;29;20475;-55
2022/11/22 03:37:51;;;;;;;31.37;19.70;;;0.90;99.90;;;;;;4844609;29;20476;-55
2022/11/22 03:40:19;;;;;;;33.73;20.17;;;0.90;99.90;;;;;;4844888;29;20480;-54
2022/11/22 03:42:48;;;;;;;32.57;20.37;;;0.90;99.90;;;;;;4844104;29;20488;-55
2022/11/22 03:45:16;;;;;;;30.10;19.10;;;0.90;99.90;;;;;;4844964;29;20484;-54
2022/11/22 03:47:44;;;;;;;30.37;18.57;;;0.90;99.90;;;;;;4844688;29;20485;-55
2022/11/22 03:50:12;;;;;;;35.93;20.53;;;0.80;99.90;;;;;;4840522;29;20479;-54
2022/11/22 03:52:41;;;;;;;33.17;20.27;;;0.90;99.90;;;;;;4844137;29;20507;-55
2022/11/22 03:55:09;;;;;;;32.30;21.03;;;0.90;99.90;;;;;;4844681;29;20487;-55
2022/11/22 03:57:37;;;;;;;31.63;20.10;;;0.90;99.90;;;;;;4844655;29;20476;-54
2022/11/22 04:00:07;;;;;;;33.67;20.57;;;0.90;99.90;;;;;;4845064;29;20480;-54
2022/11/22 04:02:38;;;;;;;31.93;20.50;;;0.90;99.90;;;;;;4843816;29;20479;-56
2022/11/22 04:05:07;;;;;;;33.83;20.57;;;0.90;99.90;;;;;;4844329;29;20476;-54
2022/11/22 04:07:35;;;;;;;33.40;20.97;;;0.90;99.90;;;;;;4844109;29;20833;-56
2022/11/22 04:10:07;;;;;;;30.47;19.60;;;0.90;99.90;;;;;;4843122;29;20480;-55
2022/11/22 04:12:35;;;;;;;33.70;20.43;;;0.90;99.90;;;;;;4844206;29;20495;-55
2022/11/22 04:15:06;;;;;;;31.60;19.63;;;0.90;99.90;;;;;;4844044;29;20476;-55
2022/11/22 04:17:40;;;;;;;29.80;19.27;;;1.00;99.90;;;;;;4844241;29;20484;-54
2022/11/22 04:22:57;;;;;;;31.67;19.37;;;0.90;99.90;;;;;;4843858;29;20832;-55
2022/11/22 04:25:28;;;;;;;33.07;19.63;;;0.90;99.90;;;;;;4843862;29;20476;-55
2022/11/22 04:27:56;;;;;;;32.60;19.73;;;1.00;99.90;;;;;;4844177;29;20481;-55
2022/11/22 04:32:44;;;;;;;31.63;20.20;;;1.00;99.90;;;;;;4843821;29;20988;-55
2022/11/22 04:33:14;;;;;;;31.67;20.17;;;1.00;99.90;;;;;;4836761;29;20988;-55
2022/11/22 04:35:42;;;;;;;32.03;20.23;;;1.00;99.90;;;;;;4843594;29;20903;-54
2022/11/22 04:38:12;;;;;;;33.00;19.47;;;1.00;99.90;;;;;;4843690;29;20571;-56
2022/11/22 04:40:41;;;;;;;30.77;19.83;;;1.00;99.90;;;;;;4843125;29;20473;-54
2022/11/22 04:46:01;;;;;;;30.17;19.50;;;1.00;99.90;;;;;;4843640;29;20477;-56
2022/11/22 04:48:29;;;;;;;33.10;20.47;;;1.00;99.90;;;;;;4843755;29;20553;-55
2022/11/22 04:53:43;;;;;;;28.23;17.17;;;1.00;99.90;;;;;;4843087;29;20571;-55
2022/11/22 04:56:13;;;;;;;31.80;19.90;;;1.10;99.90;;;;;;4843164;29;20465;-56
2022/11/22 04:58:41;;;;;;;32.30;20.23;;;1.10;99.90;;;;;;4843430;29;20980;-55
2022/11/22 05:01:09;;;;;;;33.17;20.90;;;1.00;99.90;;;;;;4843625;29;20540;-55
2022/11/22 05:03:37;;;;;;;33.07;20.33;;;1.10;99.90;;;;;;4843049;29;20552;-55
2022/11/22 05:06:06;;;;;;;30.00;19.03;;;1.00;99.90;;;;;;4843515;29;20472;-55
2022/11/22 05:08:34;;;;;;;31.90;20.10;;;1.00;99.90;;;;;;4842999;29;20476;-55
2022/11/22 05:11:02;;;;;;;30.83;19.83;;;1.00;99.90;;;;;;4843329;29;20970;-56
2022/11/22 05:13:33;;;;;;;33.00;20.80;;;1.00;99.90;;;;;;4842929;29;20497;-56
2022/11/22 05:16:03;;;;;;;33.20;20.10;;;1.00;99.90;;;;;;4843324;29;20476;-54
2022/11/22 05:18:31;;;;;;;34.03;20.53;;;1.00;99.90;;;;;;4843100;29;20472;-56
2022/11/22 05:21:03;;;;;;;32.13;20.57;;;1.00;99.90;;;;;;4842526;29;20533;-56
2022/11/22 05:26:17;;;;;;;29.27;18.20;;;1.00;99.90;;;;;;4842853;29;20886;-57
2022/11/22 05:28:46;;;;;;;34.67;21.67;;;1.10;99.90;;;;;;4842831;29;20465;-55
2022/11/22 05:31:17;;;;;;;32.33;19.53;;;1.10;99.90;;;;;;4836900;29;20820;-56
2022/11/22 05:33:46;;;;;;;33.93;19.90;;;1.10;99.90;;;;;;4842614;29;21007;-56
2022/11/22 05:36:14;;;;;;;32.37;20.27;;;1.10;99.90;;;;;;4842958;29;20866;-56
2022/11/22 05:38:42;;;;;;;30.77;19.17;;;1.00;99.90;;;;;;4842267;29;20469;-54
2022/11/22 05:41:12;;;;;;;33.40;19.67;;;1.00;99.90;;;;;;4842822;29;20814;-56
2022/11/22 05:43:40;;;;;;;33.23;20.90;;;1.10;99.90;;;;;;4842226;29;20540;-55
2022/11/22 05:46:11;;;;;;;31.53;19.33;;;1.10;99.90;;;;;;4842456;29;20537;-54
2022/11/22 05:48:41;;;;;;;31.17;19.57;;;1.10;99.90;;;;;;4842529;29;20491;-56
2022/11/22 05:51:11;;;;;;;30.77;20.20;;;1.10;99.90;;;;;;4836760;29;20476;-55
2022/11/22 05:53:40;;;;;;;33.50;19.80;;;1.10;99.90;;;;;;4842260;29;20496;-55
2022/11/22 05:56:08;;;;;;;31.47;20.37;;;1.10;99.90;;;;;;4842357;29;20988;-55
2022/11/22 05:58:37;;;;;;;31.47;19.80;;;1.10;99.90;;;;;;4841990;29;20468;-55
2022/11/22 06:01:11;;;;;;;31.07;19.60;;;1.10;99.90;;;;;;4842534;29;20482;-56
2022/11/22 06:03:41;;;;;;;31.67;19.53;;;1.10;99.90;;;;;;4841763;29;20483;-55
2022/11/22 06:06:10;;;;;;;29.63;18.10;;;1.10;99.90;;;;;;4834652;29;20890;-56
2022/11/22 06:08:40;;;;;;;29.80;18.87;;;1.00;99.90;;;;;;4842163;29;20495;-56
2022/11/22 06:11:12;;;;;;;31.83;19.83;;;1.10;99.90;;;;;;4841814;29;20477;-55
2022/11/22 06:13:43;;;;;;;29.77;17.20;;;1.10;99.90;;;;;;4841851;29;20489;-56
2022/11/22 06:16:11;;;;;;;34.47;20.60;;;1.10;99.90;;;;;;4842469;29;20818;-56
2022/11/22 06:18:41;;;;;;;31.40;19.93;;;1.10;99.90;;;;;;4840089;29;20887;-55
2022/11/22 06:21:12;;;;;;;34.97;21.07;;;1.10;99.90;;;;;;4841429;29;20567;-56
2022/11/22 06:23:40;;;;;;;31.13;18.83;;;1.10;99.90;;;;;;4834789;29;20477;-56
2022/11/22 06:26:10;;;;;;;29.00;19.07;;;1.10;99.90;;;;;;4847396;29;20468;-55
2022/11/22 06:28:39;;;;;;;32.07;20.43;;;1.10;99.90;;;;;;4841317;29;20476;-56
2022/11/22 06:31:11;;;;;;;29.80;19.13;;;1.20;99.90;;;;;;4831909;29;20481;-55
2022/11/22 06:33:41;;;;;;;32.73;20.77;;;1.20;99.90;;;;;;4832802;29;20493;-56
2022/11/22 06:36:11;;;;;;;31.60;20.50;;;1.20;99.90;;;;;;4832990;29;20845;-56
2022/11/22 06:38:41;;;;;;;33.80;20.93;;;1.20;99.90;;;;;;4833296;29;20830;-54
2022/11/22 06:41:11;;;;;;;31.47;20.70;;;1.20;99.90;;;;;;4831699;29;20482;-54
2022/11/22 06:43:41;;;;;;;28.13;18.47;;;1.20;99.90;;;;;;4833820;29;20500;-50
2022/11/22 06:46:17;;;;;;;30.80;19.87;;;1.30;99.90;;;;;;4830382;29;20611;-56
2022/11/22 06:48:47;;;;;;;31.13;20.30;;;1.20;99.90;;;;;;4829872;29;20516;-55
2022/11/22 06:51:17;;;;;;;30.87;19.40;;;1.30;99.90;;;;;;4836021;29;20493;-55
2022/11/22 06:53:46;;;;;;;29.97;19.27;;;1.20;99.90;;;;;;4834604;29;20514;-56
2022/11/22 06:56:18;;;;;;;34.63;21.27;;;1.30;99.90;;;;;;4832021;29;20487;-56
2022/11/22 06:58:46;;;;;;;30.47;19.37;;;1.30;99.90;;;;;;4829694;29;21435;-56
2022/11/22 07:01:17;;;;;;;29.33;18.87;;;1.30;99.90;;;;;;4838536;29;20558;-56
2022/11/22 07:03:47;;;;;;;30.77;19.50;;;1.30;99.90;;;;;;4834805;29;20906;-56
2022/11/22 07:06:17;;;;;;;31.37;19.33;;;1.30;99.90;;;;;;4828660;29;20481;-56
2022/11/22 07:08:46;;;;;;;29.50;19.33;;;1.20;99.90;;;;;;4834351;29;20474;-56
2022/11/22 07:11:16;;;;;;;29.80;19.53;;;1.30;99.90;;;;;;4834984;29;21412;-56
2022/11/22 07:13:45;;;;;;;30.70;20.00;;;1.30;99.90;;;;;;4833304;29;21434;-56
2022/11/22 07:16:15;;;;;;;28.83;18.93;;;1.30;99.90;;;;;;4830769;29;20497;-56
2022/11/22 07:18:43;;;;;;;28.50;19.30;;;1.30;99.90;;;;;;4834601;29;21679;-53
2022/11/22 07:21:14;;;;;;;27.10;18.07;;;1.30;99.90;;;;;;4831928;29;20487;-55
2022/11/22 07:23:44;;;;;;;31.63;19.87;;;1.30;99.90;;;;;;4833026;29;20490;-56
2022/11/22 07:26:14;;;;;;;31.57;20.00;;;1.30;99.90;;;;;;4831422;29;21021;-56
2022/11/22 07:28:43;;;;;;;32.87;21.80;;;1.30;99.90;;;;;;4833746;29;20502;-56
2022/11/22 07:31:13;;;;;;;31.37;20.00;;;1.30;99.90;;;;;;4831885;29;20511;-56
2022/11/22 07:33:42;;;;;;;31.07;19.27;;;1.40;99.90;;;;;;4828415;29;21054;-56
2022/11/22 07:36:14;;;;;;;29.93;20.13;;;1.30;99.90;;;;;;4834293;29;20488;-53
2022/11/22 07:38:42;;;;;;;28.77;19.33;;;1.30;99.90;;;;;;4833605;29;20481;-55
2022/11/22 07:41:10;;;;;;;31.23;18.97;;;1.30;99.90;;;;;;4834403;29;20475;-55
2022/11/22 07:43:38;;;;;;;31.07;20.70;;;1.30;99.90;;;;;;4832882;29;20484;-55
2022/11/22 07:46:08;;;;;;;33.83;20.53;;;1.30;99.90;;;;;;4835136;29;20512;-56
2022/11/22 07:48:36;;;;;;;30.80;18.97;;;1.40;99.90;;;;;;4833764;29;20476;-56
2022/11/22 07:51:05;;;;;;;31.90;20.23;;;1.40;99.90;;;;;;4839878;29;20485;-52
2022/11/22 07:53:35;;;;;;;28.60;18.97;;;1.40;99.90;;;;;;4836467;29;20493;-53
2022/11/22 07:56:04;;;;;;;30.47;19.37;;;1.40;99.90;;;;;;4830314;29;20583;-55
2022/11/22 07:58:33;;;;;;;32.30;19.17;;;1.40;99.90;;;;;;4834883;29;21239;-55
2022/11/22 08:01:05;;;;;;;30.50;19.60;;;1.40;99.90;;;;;;4831975;29;20989;-56
2022/11/22 08:03:34;;;;;;;28.83;18.87;;;1.50;99.90;;;;;;4834154;29;21225;-53
2022/11/22 08:06:04;;;;;;;32.67;20.90;;;1.50;99.90;;;;;;4834419;29;20496;-55
2022/11/22 08:08:33;;;;;;;27.87;18.20;;;1.50;99.90;;;;;;4838613;29;20496;-55
2022/11/22 08:11:03;;;;;;;33.43;19.20;;;1.50;99.90;;;;;;4834506;29;20495;-55
2022/11/22 08:13:31;;;;;;;29.63;19.27;;;1.60;99.90;;;;;;4836370;29;20566;-55
2022/11/22 08:16:03;;;;;;;29.57;19.67;;;1.60;99.90;;;;;;4830938;29;20508;-54
2022/11/22 08:18:33;;;;;;;29.27;18.80;;;1.60;99.90;;;;;;4832398;29;21569;-55
2022/11/22 08:21:05;;;;;;;28.10;18.80;;;1.70;99.90;;;;;;4843920;29;20502;-56
2022/11/22 08:23:34;;;;;;;30.63;19.20;;;1.60;99.90;;;;;;4838312;29;20472;-55
2022/11/22 08:26:05;;;;;;;27.47;18.43;;;1.60;99.90;;;;;;4834446;29;20507;-55
2022/11/22 08:28:33;;;;;;;29.43;19.03;;;1.70;99.90;;;;;;4838152;29;20480;-52
2022/11/22 08:31:04;;;;;;;30.30;19.30;;;1.80;99.90;;;;;;4833545;29;20503;-55
2022/11/22 08:33:32;;;;;;;29.53;18.30;;;1.80;99.90;;;;;;4835439;29;20990;-55
2022/11/22 08:36:00;;;;;;;28.00;18.70;;;1.70;99.90;;;;;;4834449;29;20504;-56
2022/11/22 08:38:28;;;;;;;25.77;17.37;;;1.70;99.90;;;;;;4833867;29;20481;-53
2022/11/22 08:40:57;;;;;;;26.00;16.87;;;1.80;99.90;;;;;;4835939;29;21037;-54
2022/11/22 08:43:26;;;;;;;29.67;19.20;;;1.80;99.90;;;;;;4835301;29;20510;-54
2022/11/22 08:45:56;;;;;;;30.90;18.63;;;1.80;99.90;;;;;;4835705;29;20493;-55
2022/11/22 08:48:25;;;;;;;29.30;18.67;;;1.80;99.90;;;;;;4834452;29;21387;-53
2022/11/22 08:50:54;;;;;;;30.30;20.13;;;1.90;99.90;;;;;;4839355;29;20515;-56
2022/11/22 08:53:23;;;;;;;31.73;19.97;;;1.90;99.90;;;;;;4834734;29;20823;-54
2022/11/22 08:55:51;;;;;;;28.80;19.13;;;1.90;99.90;;;;;;4838941;29;20496;-55
2022/11/22 08:58:19;;;;;;;33.70;21.53;;;1.80;99.90;;;;;;4835695;29;20832;-56
2022/11/22 09:00:49;;;;;;;29.63;19.10;;;2.00;99.90;;;;;;4833254;29;20491;-56
2022/11/22 09:03:17;;;;;;;30.80;20.03;;;1.90;99.90;;;;;;4835743;29;20483;-56
2022/11/22 09:05:45;;;;;;;33.70;20.07;;;1.90;99.90;;;;;;4834464;29;20834;-56
2022/11/22 09:08:34;;;;;;;33.43;19.67;;;1.90;99.90;;;;;;4836344;29;20575;-55
2022/11/22 09:11:08;;;;;;;29.67;19.17;;;1.90;99.90;;;;;;4836567;29;20500;-56
2022/11/22 09:13:37;;;;;;;29.37;19.00;;;1.90;99.90;;;;;;4833843;29;20815;-56
2022/11/22 09:16:08;;;;;;;31.10;19.57;;;1.90;99.90;;;;;;4831807;29;20503;-56
2022/11/22 09:18:37;;;;;;;34.87;21.97;;;1.90;99.90;;;;;;4834685;29;20844;-56
2022/11/22 09:21:06;;;;;;;29.07;19.23;;;2.00;99.90;;;;;;4831565;29;20494;-56
2022/11/22 09:23:35;;;;;;;32.90;20.60;;;2.00;99.90;;;;;;4825769;29;20500;-55
2022/11/22 09:26:05;;;;;;;28.83;20.40;;;2.00;99.90;;;;;;4832643;29;20485;-53
2022/11/22 09:28:33;;;;;;;28.20;18.60;;;2.10;99.90;;;;;;4832257;29;21020;-53
2022/11/22 09:31:04;;;;;;;31.23;19.80;;;2.00;99.90;;;;;;4834105;29;21520;-55
2022/11/22 09:33:34;;;;;;;28.37;19.20;;;2.00;99.90;;;;;;4833909;29;20479;-54
2022/11/22 09:36:04;;;;;;;28.70;18.50;;;2.10;99.90;;;;;;4836880;29;20533;-56
2022/11/22 09:38:34;;;;;;;30.70;18.93;;;2.20;99.90;;;;;;4832396;29;20570;-54
2022/11/22 09:41:10;;;;;;;29.60;19.13;;;2.20;99.90;;;;;;4835560;29;20488;-54
2022/11/22 09:43:50;;;;;;;28.90;18.70;;;2.20;99.90;;;;;;4830125;29;20502;-56
2022/11/22 09:46:26;;;;;;;29.73;19.80;;;2.20;99.90;;;;;;4836364;29;20492;-56
2022/11/22 09:49:19;;;;;;;29.53;18.93;;;2.30;99.90;;;;;;4833488;29;20499;-55
2022/11/22 09:51:52;;;;;;;29.60;18.60;;;2.30;99.90;;;;;;4833770;29;20495;-56
2022/11/22 09:54:26;;;;;;;30.27;20.20;;;2.30;99.90;;;;;;4834213;29;20974;-56
2022/11/22 09:56:58;;;;;;;29.37;18.80;;;2.30;99.90;;;;;;4832929;29;20857;-56
2022/11/22 09:59:31;;;;;;;29.20;18.97;;;2.40;99.90;;;;;;4832302;29;21053;-56
2022/11/22 10:02:04;;;;;;;30.07;19.73;;;2.40;99.90;;;;;;4836199;29;20499;-55
2022/11/22 10:04:53;;;;;;;32.13;20.13;;;2.40;99.90;;;;;;4832488;29;20476;-51
2022/11/22 10:07:27;;;;;;;29.93;19.87;;;2.50;99.90;;;;;;4831810;29;21060;-56
2022/11/22 10:10:04;;;;;;;29.53;19.23;;;2.50;99.90;;;;;;4835768;29;20537;-56
2022/11/22 10:12:40;;;;;;;27.57;19.27;;;2.60;99.90;;;;;;4833911;29;20498;-56
2022/11/22 10:15:19;;;;;;;31.97;19.50;;;2.50;99.90;;;;;;4830568;29;20865;-55
2022/11/22 10:17:53;;;;;;;31.80;20.37;;;2.50;99.90;;;;;;4834662;29;20481;-56
2022/11/22 10:20:24;;;;;;;29.60;19.87;;;2.60;99.90;;;;;;4833520;29;20476;-57
2022/11/22 10:22:52;;;;;;;31.67;19.53;;;2.60;99.90;;;;;;4832780;29;20477;-54
2022/11/22 10:25:22;;;;;;;29.30;18.93;;;2.70;99.90;;;;;;4833592;29;20474;-56
2022/11/22 10:27:54;;;;;;;30.63;19.30;;;2.60;99.90;;;;;;4831150;29;20485;-56
2022/11/22 10:30:33;;;;;;;32.30;20.70;;;2.60;99.90;;;;;;4834472;29;20543;-55
2022/11/22 10:33:10;;;;;;;29.30;19.90;;;2.70;99.90;;;;;;4835767;29;21067;-57
2022/11/22 10:36:14;;;;;;;30.80;20.17;;;2.70;99.90;;;;;;4832198;29;20499;-56
2022/11/22 10:39:01;;;;;;;31.43;21.47;;;2.70;99.90;;;;;;4836791;29;20492;-56
2022/11/22 10:41:51;;;;;;;31.33;21.63;;;2.80;99.90;;;;;;4835860;29;20476;-55
2022/11/22 10:44:34;;;;;;;31.07;20.50;;;2.80;99.90;;;;;;4832557;29;20485;-55
2022/11/22 10:47:15;;;;;;;31.97;21.03;;;2.80;99.90;;;;;;4832355;29;20495;-55
2022/11/22 10:49:55;;;;;;;33.03;21.47;;;2.90;99.90;;;;;;4838703;29;20477;-56
2022/11/22 10:52:34;;;;;;;30.67;21.17;;;2.90;99.90;;;;;;4840672;29;20478;-56
2022/11/22 10:55:17;;;;;;;34.07;21.00;;;2.90;99.90;;;;;;4832430;29;20498;-51
2022/11/22 10:57:57;;;;;;;30.50;19.97;;;2.90;99.90;;;;;;4833251;29;21060;-55
2022/11/22 11:00:28;;;;;;;32.13;21.20;;;3.00;99.90;;;;;;4833238;29;20494;-52
2022/11/22 11:03:20;;;;;;;29.67;19.43;;;3.00;99.90;;;;;;4835340;29;20479;-53
2022/11/22 11:05:53;;;;;;;31.53;20.07;;;3.00;99.90;;;;;;4834112;29;20486;-56
2022/11/22 11:08:45;;;;;;;32.23;19.93;;;3.00;99.90;;;;;;4834881;29;20482;-56
2022/11/22 11:11:37;;;;;;;30.30;20.77;;;3.00;99.90;;;;;;4831823;29;20467;-56
2022/11/22 11:14:12;;;;;;;31.93;19.40;;;3.10;99.90;;;;;;4837149;29;20488;-53
2022/11/22 11:16:40;;;;;;;31.93;20.50;;;3.20;99.90;;;;;;4830274;29;21286;-55
2022/11/22 11:19:16;;;;;;;29.60;19.90;;;3.10;99.90;;;;;;4835469;29;20840;-57
2022/11/22 11:21:45;;;;;;;28.27;19.00;;;3.20;99.90;;;;;;4836018;29;20490;-57
2022/11/22 11:24:16;;;;;;;32.33;19.57;;;3.20;99.90;;;;;;4840060;29;20481;-52
2022/11/22 11:26:53;;;;;;;30.57;19.50;;;3.20;99.90;;;;;;4833052;29;20552;-56
2022/11/22 11:29:50;;;;;;;30.47;20.47;;;3.30;99.90;;;;;;4837261;29;21058;-52
2022/11/22 11:32:20;;;;;;;31.57;20.17;;;3.40;99.90;;;;;;4815907;29;20873;-56
2022/11/22 11:34:54;;;;;;;31.13;21.33;;;3.40;99.90;;;;;;4835896;29;21030;-51
2022/11/22 11:37:26;;;;;;;30.30;19.80;;;3.40;99.90;;;;;;4836983;29;20509;-56
2022/11/22 11:39:55;;;;;;;30.27;18.43;;;3.50;99.90;;;;;;4839164;29;20606;-56
2022/11/22 11:42:26;;;;;;;32.00;20.67;;;3.50;99.90;;;;;;4836658;29;20500;-55
2022/11/22 11:44:55;;;;;;;30.20;20.73;;;3.60;99.90;;;;;;4845480;29;20490;-55
2022/11/22 11:47:32;;;;;;;31.83;19.77;;;3.60;99.90;;;;;;4838293;29;20479;-56
2022/11/22 11:50:01;;;;;;;29.27;21.10;;;3.60;99.90;;;;;;4839337;29;20896;-57
2022/11/22 11:52:30;;;;;;;31.47;20.30;;;3.60;99.90;;;;;;4836386;29;20473;-57
2022/11/22 11:55:02;;;;;;;28.97;18.67;;;3.60;99.90;;;;;;4831093;29;20477;-57
2022/11/22 11:57:33;;;;;;;29.80;20.17;;;3.70;99.90;;;;;;4854146;29;21184;-57
2022/11/22 12:00:05;;;;;;;31.23;20.23;;;3.80;99.90;;;;;;4833956;29;20494;-56
2022/11/22 12:02:38;;;;;;;33.90;20.47;;;3.80;99.90;;;;;;4835560;29;20511;-51
2022/11/22 12:05:25;;;;;;;29.80;19.63;;;3.90;99.90;;;;;;4840088;29;20851;-57
2022/11/22 12:07:53;;;;;;;30.10;20.10;;;3.90;99.90;;;;;;4837887;29;20492;-56
2022/11/22 12:10:41;;;;;;;33.77;21.83;;;4.00;99.90;;;;;;4835504;29;20489;-52
2022/11/22 12:13:18;;;;;;;33.30;20.80;;;4.10;99.90;;;;;;4833959;29;20485;-57
2022/11/22 12:15:54;;;;;;;39.03;25.33;;;4.10;99.90;;;;;;4834439;29;20766;-58
2022/11/22 12:18:38;;;;;;;34.77;23.57;;;4.20;99.90;;;;;;4834232;29;20477;-52
2022/11/22 12:21:18;;;;;;;31.03;21.17;;;4.20;99.90;;;;;;4834180;29;20491;-57
2022/11/22 12:23:51;;;;;;;32.87;22.97;;;4.20;99.90;;;;;;4833872;29;20513;-54
2022/11/22 12:26:21;;;;;;;32.33;21.73;;;4.30;99.90;;;;;;4832959;29;20485;-57
2022/11/22 12:28:49;;;;;;;32.80;22.33;;;4.30;99.90;;;;;;4833986;29;20977;-55
2022/11/22 12:31:26;;;;;;;27.37;20.37;;;4.30;99.90;;;;;;4833273;29;20585;-54
2022/11/22 12:33:58;;;;;;;32.53;21.73;;;4.40;99.90;;;;;;4837580;29;20497;-57
2022/11/22 12:36:41;;;;;;;29.30;19.33;;;4.40;99.90;;;;;;4841669;29;20566;-53
2022/11/22 12:39:14;;;;;;;29.27;19.40;;;4.40;99.90;;;;;;4838013;29;21007;-58
2022/11/22 12:41:46;;;;;;;30.30;20.70;;;4.50;99.90;;;;;;4834870;29;20505;-53
2022/11/22 12:44:18;;;;;;;31.83;22.20;;;4.50;99.90;;;;;;4834071;29;21523;-57
2022/11/22 12:46:50;;;;;;;31.63;20.60;;;4.60;99.90;;;;;;4833489;29;20470;-57
2022/11/22 12:49:28;;;;;;;30.33;20.40;;;4.60;99.90;;;;;;4837732;29;20482;-57
2022/11/22 12:52:04;;;;;;;25.97;19.10;;;4.60;99.90;;;;;;4834908;29;20498;-56
2022/11/22 12:54:37;;;;;;;25.43;17.97;;;4.60;99.90;;;;;;4836918;29;20510;-57
2022/11/22 12:57:13;;;;;;;24.57;17.67;;;4.60;99.90;;;;;;4834036;29;20500;-57
2022/11/22 12:59:48;;;;;;;28.07;18.43;;;4.60;99.90;;;;;;4834568;29;20487;-56
2022/11/22 13:02:25;;;;;;;25.43;18.37;;;4.70;99.90;;;;;;4835378;29;21211;-55
2022/11/22 13:04:59;;;;;;;25.47;17.73;;;4.80;99.90;;;;;;4831875;29;20493;-52
2022/11/22 13:07:46;;;;;;;24.80;18.00;;;4.80;99.90;;;;;;4833388;29;20893;-57